Pagina principale
METAR-TAF:

METAR-TAF

Aeroporti :

Grenchen, Svizzera

latitudine: 47-10-53N, longitudine: 007-24-59E, altezza: 430 m

Osservazione

Il bollettino è stato emesso 16 minuti fa, alle 09:50 UTC
Vento 4 kt da nord-est
Temperature 4°C
Umidità 60%
Pressione 1017 hPa
Visibilità 10 km o più
Poco nuvoloso ad un'altezza di 4700 ft

METAR: LSZG 090950Z 05004KT 9999 FEW047 04/M03 Q1017 NOSIG

Ora: 11:06 (10:06 UTC)

Previsione

Il bollettino è stato emesso 1 ora e 41 minuti fa, alle 08:25 UTC
Previsione valida dal 09 alle 09 UTC al 09 alle 18 UTC
Vento 2 kt da direzioni variabili
Visibilità 10 km o più
Poco nuvoloso ad un'altezza di 4500 ft
Temporaneamente
dal 09 alle 09 UTC al 09 alle 15 UTC
Visibilità 10 km o più
nessuna nube inferiore a 1500 m e nessun cumulonembo

TAF: LSZG 090825Z 0909/0918 VRB02KT 9999 FEW045 TEMPO 0909/0915 CAVOK

Osservazioni e previsioni meteorologiche di più di 4000 aeroporti (messaggi METAR e TAF).

Le stazioni disponibili sono rappresentate dai dischi gialli e rossi sulla carta.

Puntare il mouse per vedere il nome della stazione.

Clicca sopra per visualizzare le osservazioni e previsioni meteorologiche.

Per cambiare la mappa : fare clic sui pulsanti verdi con una croce nera per ingrandire, il pulsante verde con un trattino per diminuire, o sulla freccia verde per le mappe adiacenti.


METAR-TAF: